NKS1525 KMSP-KSLC
Flight info
| Callsign | NKS1525 |
|---|---|
| Flight time | 0h 56m |
| Altitude | 34000 |
| Route | LEINY6 LEINY DCT RAP DCT DDY CARTR1 |
| Aircraft | A321/M-VGDW/C |
Departure
| Time | 2026-05-07 11:18 |
|---|---|
| Airport | Minneapolis–Saint Paul International Airport / Wold–Chamberlain Field (KMSP) |
Arrival
| Time | 2026-05-07 12:15 |
|---|---|
| Airport | Salt Lake City International Airport (KSLC) |
| Time | Latitude | Longitude | Altitude | Speed | Heading |
|---|---|---|---|---|---|
| 2026-05-07 10:22 | 44.87929 | -93.20759 | 825 ft | 0 kts | 30° |
| 2026-05-07 11:10 | 44.87925 | -93.20762 | 825 ft | 3 kts | 30° |
| 2026-05-07 11:10 | 44.87902 | -93.20781 | 824 ft | 4 kts | 34° |
| 2026-05-07 11:10 | 44.87883 | -93.20806 | 824 ft | 4 kts | 63° |
| 2026-05-07 11:11 | 44.87878 | -93.20827 | 825 ft | 4 kts | 95° |
| 2026-05-07 11:11 | 44.87882 | -93.20847 | 825 ft | 0 kts | 121° |
| 2026-05-07 11:13 | 44.87881 | -93.20844 | 825 ft | 1 kts | 121° |
| 2026-05-07 11:13 | 44.87876 | -93.20833 | 825 ft | 2 kts | 120° |
| 2026-05-07 11:13 | 44.87868 | -93.20813 | 825 ft | 3 kts | 119° |
| 2026-05-07 11:14 | 44.87856 | -93.20786 | 825 ft | 4 kts | 122° |
| 2026-05-07 11:14 | 44.87841 | -93.20750 | 825 ft | 5 kts | 122° |
| 2026-05-07 11:14 | 44.87821 | -93.20707 | 825 ft | 6 kts | 125° |
| 2026-05-07 11:14 | 44.87796 | -93.20659 | 825 ft | 6 kts | 126° |
| 2026-05-07 11:15 | 44.87758 | -93.20632 | 826 ft | 6 kts | 182° |
| 2026-05-07 11:15 | 44.87714 | -93.20632 | 826 ft | 7 kts | 159° |
| 2026-05-07 11:15 | 44.87681 | -93.20581 | 824 ft | 8 kts | 123° |
| 2026-05-07 11:15 | 44.87650 | -93.20513 | 825 ft | 9 kts | 123° |
| 2026-05-07 11:16 | 44.87616 | -93.20435 | 825 ft | 10 kts | 121° |
| 2026-05-07 11:16 | 44.87581 | -93.20352 | 826 ft | 10 kts | 121° |
| 2026-05-07 11:16 | 44.87544 | -93.20263 | 824 ft | 11 kts | 121° |
| 2026-05-07 11:16 | 44.87504 | -93.20167 | 823 ft | 12 kts | 121° |
| 2026-05-07 11:17 | 44.87456 | -93.20079 | 826 ft | 11 kts | 154° |
| 2026-05-07 11:17 | 44.87393 | -93.20112 | 827 ft | 10 kts | 234° |
| 2026-05-07 11:17 | 44.87398 | -93.20221 | 826 ft | 17 kts | 296° |
| 2026-05-07 11:17 | 44.87555 | -93.20588 | 823 ft | 80 kts | 301° |
| 2026-05-07 11:18 | 44.87960 | -93.21524 | 823 ft | 141 kts | 301° |
| 2026-05-07 11:18 | 44.88558 | -93.22907 | 959 ft | 181 kts | 301° |
| 2026-05-07 11:18 | 44.89221 | -93.24411 | 1705 ft | 181 kts | 302° |
| 2026-05-07 11:18 | 44.89852 | -93.25922 | 2410 ft | 176 kts | 295° |
| 2026-05-07 11:19 | 44.90170 | -93.27598 | 2840 ft | 179 kts | 277° |
| 2026-05-07 11:19 | 44.90242 | -93.29430 | 3047 ft | 197 kts | 274° |
| 2026-05-07 11:19 | 44.90280 | -93.31452 | 3169 ft | 217 kts | 272° |
| 2026-05-07 11:19 | 44.90323 | -93.33669 | 3310 ft | 241 kts | 272° |
| 2026-05-07 11:20 | 44.90386 | -93.36086 | 3818 ft | 250 kts | 271° |
| 2026-05-07 11:20 | 44.90471 | -93.38549 | 4493 ft | 252 kts | 272° |
| 2026-05-07 11:20 | 44.90651 | -93.42921 | 5748 ft | 254 kts | 273° |
| 2026-05-07 11:20 | 44.91126 | -93.53029 | 8450 ft | 262 kts | 274° |
| 2026-05-07 11:21 | 44.91615 | -93.63511 | 10639 ft | 286 kts | 275° |
| 2026-05-07 11:21 | 44.92201 | -93.75895 | 11634 ft | 346 kts | 275° |
| 2026-05-07 11:21 | 44.92844 | -93.89639 | 14042 ft | 353 kts | 274° |
| 2026-05-07 11:21 | 44.93472 | -94.03694 | 16141 ft | 365 kts | 274° |
| 2026-05-07 11:22 | 44.94115 | -94.18301 | 18001 ft | 380 kts | 274° |
| 2026-05-07 11:22 | 44.94530 | -94.27893 | 19137 ft | 387 kts | 274° |
| 2026-05-07 11:22 | 44.94693 | -94.31710 | 19581 ft | 390 kts | 274° |
| 2026-05-07 11:22 | 44.94853 | -94.35537 | 20031 ft | 392 kts | 274° |
| 2026-05-07 11:23 | 44.95011 | -94.39391 | 20439 ft | 394 kts | 274° |
| 2026-05-07 11:23 | 44.95168 | -94.43264 | 20843 ft | 397 kts | 274° |
| 2026-05-07 11:23 | 44.95326 | -94.47172 | 21230 ft | 399 kts | 274° |
| 2026-05-07 11:23 | 44.95481 | -94.51043 | 21613 ft | 401 kts | 274° |
| 2026-05-07 11:24 | 44.95638 | -94.54979 | 21979 ft | 403 kts | 274° |
| 2026-05-07 11:24 | 44.95795 | -94.58942 | 22334 ft | 405 kts | 274° |
| 2026-05-07 11:24 | 44.95952 | -94.62922 | 22684 ft | 407 kts | 274° |
| 2026-05-07 11:24 | 44.96109 | -94.66934 | 23035 ft | 409 kts | 274° |
| 2026-05-07 11:25 | 44.96265 | -94.70951 | 23372 ft | 411 kts | 274° |
| 2026-05-07 11:25 | 44.96422 | -94.74992 | 23697 ft | 413 kts | 274° |
| 2026-05-07 11:25 | 44.96580 | -94.79048 | 24012 ft | 415 kts | 274° |
| 2026-05-07 11:25 | 44.96738 | -94.83131 | 24322 ft | 417 kts | 274° |
| 2026-05-07 11:26 | 44.96893 | -94.87235 | 24637 ft | 419 kts | 274° |
| 2026-05-07 11:26 | 44.97046 | -94.91356 | 24955 ft | 421 kts | 274° |
| 2026-05-07 11:26 | 44.97195 | -94.95493 | 25245 ft | 422 kts | 274° |
| 2026-05-07 11:26 | 44.97343 | -94.99645 | 25518 ft | 425 kts | 274° |
| 2026-05-07 11:27 | 44.97490 | -95.03766 | 25800 ft | 426 kts | 274° |
| 2026-05-07 11:27 | 44.97640 | -95.07955 | 26084 ft | 428 kts | 274° |
| 2026-05-07 11:27 | 44.97790 | -95.12164 | 26355 ft | 430 kts | 274° |
| 2026-05-07 11:27 | 44.97938 | -95.16405 | 26636 ft | 432 kts | 274° |
| 2026-05-07 11:28 | 44.98083 | -95.20647 | 26945 ft | 432 kts | 274° |
| 2026-05-07 11:28 | 44.98226 | -95.24886 | 27352 ft | 431 kts | 274° |
| 2026-05-07 11:28 | 44.98364 | -95.29105 | 27730 ft | 430 kts | 274° |
| 2026-05-07 11:28 | 44.98504 | -95.33319 | 28077 ft | 429 kts | 274° |
| 2026-05-07 11:29 | 44.98644 | -95.37534 | 28414 ft | 429 kts | 275° |
| 2026-05-07 11:29 | 44.98782 | -95.41740 | 28776 ft | 428 kts | 275° |
| 2026-05-07 11:29 | 44.98918 | -95.45937 | 29113 ft | 427 kts | 275° |
| 2026-05-07 11:29 | 44.99050 | -95.50068 | 29438 ft | 427 kts | 275° |
| 2026-05-07 11:30 | 44.99184 | -95.54248 | 29756 ft | 426 kts | 275° |
| 2026-05-07 11:30 | 44.99313 | -95.58420 | 30064 ft | 425 kts | 275° |
| 2026-05-07 11:30 | 44.99438 | -95.62591 | 30352 ft | 425 kts | 275° |
| 2026-05-07 11:30 | 44.99562 | -95.66763 | 30647 ft | 424 kts | 275° |
| 2026-05-07 11:31 | 44.99687 | -95.70925 | 30922 ft | 424 kts | 275° |
| 2026-05-07 11:31 | 44.99813 | -95.75092 | 31180 ft | 424 kts | 275° |
| 2026-05-07 11:31 | 44.99939 | -95.79258 | 31454 ft | 424 kts | 275° |
| 2026-05-07 11:31 | 45.00061 | -95.83415 | 31706 ft | 424 kts | 275° |
| 2026-05-07 11:32 | 45.00294 | -95.91731 | 32203 ft | 424 kts | 275° |
| 2026-05-07 11:32 | 45.00408 | -95.95891 | 32456 ft | 423 kts | 275° |
| 2026-05-07 11:32 | 45.00519 | -96.00045 | 32696 ft | 423 kts | 274° |
| 2026-05-07 11:33 | 45.00630 | -96.04197 | 32944 ft | 422 kts | 275° |
| 2026-05-07 11:33 | 45.00741 | -96.08343 | 33207 ft | 421 kts | 275° |
| 2026-05-07 11:33 | 45.00851 | -96.12481 | 33436 ft | 421 kts | 275° |
| 2026-05-07 11:33 | 45.00960 | -96.16610 | 33646 ft | 421 kts | 275° |
| 2026-05-07 11:34 | 45.01068 | -96.20740 | 33847 ft | 421 kts | 275° |
| 2026-05-07 11:34 | 45.01172 | -96.24879 | 33972 ft | 422 kts | 275° |
| 2026-05-07 11:34 | 45.01273 | -96.29028 | 34000 ft | 423 kts | 275° |
| 2026-05-07 11:35 | 45.01469 | -96.37293 | 33992 ft | 424 kts | 275° |
| 2026-05-07 11:35 | 45.01664 | -96.45619 | 33990 ft | 424 kts | 275° |
| 2026-05-07 11:36 | 45.01854 | -96.53930 | 33991 ft | 423 kts | 275° |
| 2026-05-07 11:36 | 45.02045 | -96.62256 | 33987 ft | 423 kts | 275° |
| 2026-05-07 11:37 | 45.02233 | -96.70571 | 33989 ft | 423 kts | 275° |
| 2026-05-07 11:37 | 45.02400 | -96.78898 | 33992 ft | 423 kts | 275° |
| 2026-05-07 11:38 | 45.02565 | -96.87213 | 33991 ft | 423 kts | 275° |
| 2026-05-07 11:38 | 45.02724 | -96.95525 | 33992 ft | 423 kts | 276° |
| 2026-05-07 11:39 | 45.02883 | -97.03836 | 33990 ft | 423 kts | 276° |
| 2026-05-07 11:39 | 45.03033 | -97.12150 | 33983 ft | 423 kts | 276° |
| 2026-05-07 11:40 | 45.03172 | -97.20459 | 33978 ft | 422 kts | 276° |
| 2026-05-07 11:40 | 45.03389 | -97.34417 | 33974 ft | 422 kts | 276° |
| 2026-05-07 11:41 | 45.02691 | -97.67568 | 33983 ft | 431 kts | 262° |
| 2026-05-07 11:41 | 44.97021 | -98.00512 | 33968 ft | 431 kts | 263° |
| 2026-05-07 11:42 | 44.91273 | -98.33251 | 33973 ft | 428 kts | 263° |
| 2026-05-07 11:42 | 44.85494 | -98.65715 | 33961 ft | 425 kts | 264° |
| 2026-05-07 11:43 | 44.79634 | -98.97954 | 33963 ft | 425 kts | 264° |
| 2026-05-07 11:43 | 44.73729 | -99.29917 | 33964 ft | 423 kts | 264° |
| 2026-05-07 11:44 | 44.67733 | -99.61868 | 33950 ft | 421 kts | 264° |
| 2026-05-07 11:44 | 44.61678 | -99.93586 | 33935 ft | 420 kts | 264° |
| 2026-05-07 11:45 | 44.55536 | -100.25177 | 33935 ft | 418 kts | 264° |
| 2026-05-07 11:45 | 44.49333 | -100.56608 | 33932 ft | 418 kts | 263° |
| 2026-05-07 11:46 | 44.43046 | -100.87910 | 33933 ft | 418 kts | 263° |
| 2026-05-07 11:46 | 44.36666 | -101.19228 | 33923 ft | 419 kts | 263° |
| 2026-05-07 11:47 | 44.30213 | -101.50465 | 33922 ft | 418 kts | 262° |
| 2026-05-07 11:47 | 44.23671 | -101.81580 | 33924 ft | 417 kts | 262° |
| 2026-05-07 11:48 | 44.17106 | -102.12335 | 33921 ft | 417 kts | 262° |
| 2026-05-07 11:48 | 44.10413 | -102.43291 | 33924 ft | 418 kts | 261° |
| 2026-05-07 11:49 | 44.03610 | -102.74275 | 33894 ft | 419 kts | 261° |
| 2026-05-07 11:49 | 43.96636 | -103.05332 | 33892 ft | 424 kts | 258° |
| 2026-05-07 11:50 | 43.88669 | -103.36274 | 33904 ft | 426 kts | 257° |
| 2026-05-07 11:50 | 43.80659 | -103.67264 | 33921 ft | 429 kts | 257° |
| 2026-05-07 11:51 | 43.72543 | -103.98211 | 33933 ft | 431 kts | 256° |
| 2026-05-07 11:51 | 43.64307 | -104.29290 | 33952 ft | 430 kts | 256° |
| 2026-05-07 11:52 | 43.55967 | -104.60275 | 33970 ft | 430 kts | 256° |
| 2026-05-07 11:52 | 43.47622 | -104.90969 | 33970 ft | 430 kts | 255° |
| 2026-05-07 11:53 | 43.39138 | -105.21691 | 33975 ft | 429 kts | 255° |
| 2026-05-07 11:53 | 43.30588 | -105.52309 | 33970 ft | 429 kts | 255° |
| 2026-05-07 11:54 | 43.21964 | -105.82811 | 33982 ft | 428 kts | 255° |
| 2026-05-07 11:54 | 43.13263 | -106.13225 | 33989 ft | 428 kts | 255° |
| 2026-05-07 11:55 | 43.05256 | -106.43743 | 34001 ft | 423 kts | 259° |
| 2026-05-07 11:55 | 42.98011 | -106.74457 | 34002 ft | 424 kts | 258° |
| 2026-05-07 11:56 | 42.90666 | -107.05010 | 34015 ft | 424 kts | 258° |
| 2026-05-07 11:56 | 42.83215 | -107.35552 | 34069 ft | 424 kts | 258° |
| 2026-05-07 11:57 | 42.75691 | -107.66014 | 34074 ft | 423 kts | 258° |
| 2026-05-07 11:57 | 42.68146 | -107.96103 | 34078 ft | 422 kts | 258° |
| 2026-05-07 11:58 | 42.60510 | -108.26195 | 31981 ft | 420 kts | 257° |
| 2026-05-07 11:58 | 42.56640 | -108.41291 | 29041 ft | 428 kts | 257° |
| 2026-05-07 11:58 | 42.52678 | -108.56694 | 26042 ft | 428 kts | 256° |
| 2026-05-07 11:58 | 42.48773 | -108.71730 | 23831 ft | 412 kts | 256° |
| 2026-05-07 11:59 | 42.45051 | -108.86025 | 24213 ft | 414 kts | 256° |
| 2026-05-07 11:59 | 42.41119 | -109.00997 | 24087 ft | 422 kts | 255° |
| 2026-05-07 11:59 | 42.37161 | -109.15974 | 24051 ft | 422 kts | 255° |
| 2026-05-07 11:59 | 42.33181 | -109.30952 | 24028 ft | 422 kts | 255° |
| 2026-05-07 12:00 | 42.29151 | -109.45982 | 23932 ft | 421 kts | 255° |
| 2026-05-07 12:00 | 42.25205 | -109.60615 | 22336 ft | 410 kts | 255° |
| 2026-05-07 12:00 | 42.21356 | -109.74831 | 19924 ft | 397 kts | 255° |
| 2026-05-07 12:00 | 42.17634 | -109.88455 | 17798 ft | 386 kts | 254° |
| 2026-05-07 12:01 | 42.13982 | -110.01842 | 15723 ft | 373 kts | 254° |
| 2026-05-07 12:01 | 42.10432 | -110.14712 | 13679 ft | 358 kts | 253° |
| 2026-05-07 12:01 | 42.07015 | -110.27106 | 11914 ft | 345 kts | 253° |
| 2026-05-07 12:01 | 42.03590 | -110.39414 | 13117 ft | 355 kts | 253° |
| 2026-05-07 12:02 | 42.00043 | -110.52095 | 15368 ft | 370 kts | 253° |
| 2026-05-07 12:02 | 41.96345 | -110.65260 | 17447 ft | 385 kts | 253° |
| 2026-05-07 12:02 | 41.92511 | -110.79013 | 19374 ft | 397 kts | 257° |
| 2026-05-07 12:02 | 41.91546 | -110.88694 | 20588 ft | 397 kts | 270° |
| 2026-05-07 12:03 | 41.90813 | -111.03529 | 22443 ft | 400 kts | 269° |
| 2026-05-07 12:03 | 41.90058 | -111.18707 | 22545 ft | 417 kts | 270° |
| 2026-05-07 12:03 | 41.89786 | -111.33431 | 23116 ft | 399 kts | 272° |
| 2026-05-07 12:03 | 41.89537 | -111.48339 | 22130 ft | 394 kts | 273° |
| 2026-05-07 12:04 | 41.89297 | -111.62750 | 19784 ft | 379 kts | 272° |
| 2026-05-07 12:04 | 41.89121 | -111.76647 | 17615 ft | 365 kts | 273° |
| 2026-05-07 12:04 | 41.89007 | -111.90017 | 15574 ft | 353 kts | 272° |
| 2026-05-07 12:04 | 41.88333 | -112.02897 | 13211 ft | 357 kts | 246° |
| 2026-05-07 12:05 | 41.79132 | -112.06896 | 12005 ft | 362 kts | 180° |
| 2026-05-07 12:05 | 41.68436 | -112.05898 | 11786 ft | 390 kts | 180° |
| 2026-05-07 12:05 | 41.57678 | -112.04775 | 11879 ft | 396 kts | 180° |
| 2026-05-07 12:05 | 41.50136 | -112.04175 | 12101 ft | 389 kts | 182° |
| 2026-05-07 12:06 | 41.47427 | -112.04055 | 11992 ft | 389 kts | 182° |
| 2026-05-07 12:06 | 41.44716 | -112.03943 | 12002 ft | 390 kts | 182° |
| 2026-05-07 12:06 | 41.42007 | -112.03823 | 12001 ft | 390 kts | 182° |
| 2026-05-07 12:06 | 41.39291 | -112.03688 | 12002 ft | 390 kts | 182° |
| 2026-05-07 12:07 | 41.36580 | -112.03543 | 12000 ft | 390 kts | 182° |
| 2026-05-07 12:07 | 41.33865 | -112.03392 | 12001 ft | 390 kts | 181° |
| 2026-05-07 12:07 | 41.31182 | -112.03239 | 12011 ft | 391 kts | 181° |
| 2026-05-07 12:07 | 41.28455 | -112.03082 | 12011 ft | 391 kts | 181° |
| 2026-05-07 12:08 | 41.25736 | -112.02927 | 11996 ft | 390 kts | 181° |
| 2026-05-07 12:08 | 41.23048 | -112.02748 | 11519 ft | 386 kts | 180° |
| 2026-05-07 12:08 | 41.20376 | -112.02505 | 10999 ft | 382 kts | 178° |
| 2026-05-07 12:08 | 41.17742 | -112.02229 | 10529 ft | 376 kts | 178° |
| 2026-05-07 12:09 | 41.15152 | -112.01947 | 10067 ft | 370 kts | 177° |
| 2026-05-07 12:09 | 41.12662 | -112.01680 | 9826 ft | 344 kts | 177° |
| 2026-05-07 12:09 | 41.10384 | -112.01443 | 9650 ft | 314 kts | 176° |
| 2026-05-07 12:09 | 41.08304 | -112.01234 | 9509 ft | 287 kts | 177° |
| 2026-05-07 12:10 | 41.06386 | -112.01045 | 9343 ft | 264 kts | 176° |
| 2026-05-07 12:10 | 41.04605 | -112.00851 | 8959 ft | 252 kts | 172° |
| 2026-05-07 12:10 | 41.02907 | -112.00381 | 8556 ft | 249 kts | 170° |
| 2026-05-07 12:10 | 41.01226 | -112.00074 | 8188 ft | 244 kts | 175° |
| 2026-05-07 12:11 | 40.99541 | -111.99875 | 7587 ft | 244 kts | 175° |
| 2026-05-07 12:11 | 40.97849 | -111.99685 | 7209 ft | 243 kts | 175° |
| 2026-05-07 12:11 | 40.96171 | -111.99490 | 6845 ft | 241 kts | 175° |
| 2026-05-07 12:11 | 40.94510 | -111.99297 | 6462 ft | 239 kts | 175° |
| 2026-05-07 12:12 | 40.92858 | -111.99105 | 6086 ft | 237 kts | 175° |
| 2026-05-07 12:12 | 40.91229 | -111.98913 | 6000 ft | 229 kts | 175° |
| 2026-05-07 12:12 | 40.89699 | -111.98735 | 5948 ft | 213 kts | 175° |
| 2026-05-07 12:12 | 40.88285 | -111.98571 | 5724 ft | 194 kts | 175° |
| 2026-05-07 12:13 | 40.87000 | -111.98421 | 5495 ft | 177 kts | 174° |
| 2026-05-07 12:13 | 40.85842 | -111.98287 | 5277 ft | 160 kts | 172° |
| 2026-05-07 12:13 | 40.84751 | -111.98165 | 5030 ft | 155 kts | 172° |
| 2026-05-07 12:13 | 40.83685 | -111.98019 | 4880 ft | 154 kts | 172° |
| 2026-05-07 12:14 | 40.82616 | -111.97913 | 4675 ft | 153 kts | 173° |
| 2026-05-07 12:14 | 40.81552 | -111.97796 | 4451 ft | 153 kts | 173° |
| 2026-05-07 12:14 | 40.80489 | -111.97666 | 4255 ft | 153 kts | 173° |
| 2026-05-07 12:14 | 40.79509 | -111.97548 | 4229 ft | 124 kts | 175° |
| 2026-05-07 12:15 | 40.78851 | -111.97474 | 4233 ft | 45 kts | 175° |
| 2026-05-07 12:15 | 40.78615 | -111.97488 | 4231 ft | 28 kts | 195° |
| 2026-05-07 12:15 | 40.78453 | -111.97606 | 4230 ft | 25 kts | 249° |
| 2026-05-07 12:15 | 40.78454 | -111.97725 | 4231 ft | 10 kts | 278° |
| 2026-05-07 12:16 | 40.78496 | -111.97760 | 4231 ft | 7 kts | 304° |
| 2026-05-07 12:16 | 40.78526 | -111.97808 | 4231 ft | 0 kts | 332° |
| 2026-05-07 12:16 | 40.78533 | -111.97812 | 4231 ft | 2 kts | 332° |
| 2026-05-07 12:16 | 40.78551 | -111.97825 | 4231 ft | 4 kts | 333° |
| 2026-05-07 12:17 | 40.78566 | -111.97835 | 4231 ft | 0 kts | 333° |